Date,TemperatureHighF,TemperatureAvgF,TemperatureLowF,DewpointHighF,DewpointAvgF,DewpointLowF,HumidityHigh,HumidityAvg,HumidityLow,PressureMaxIn,PressureMinIn,WindSpeedMaxMPH,WindSpeedAvgMPH,GustSpeedMaxMPH,PrecipitationSumIn
2014-1-1,29.2,23.4,19.5,21.0,18.8,15.0,89,82,72,30.49,29.97,7,0,11,0.00
2014-1-2,44.2,30.8,18.9,26.0,20.5,-99.9,90,70,45,30.49,30.23,11,-10,16,0.00
2014-1-3,66.0,40.1,20.5,30.0,24.0,18.0,90,60,21,30.23,29.58,17,4,22,0.00
2014-1-4,48.2,27.4,14.8,31.0,18.1,5.0,88,69,47,30.27,29.65,10,2,17,0.00
2014-1-5,19.1,9.0,-7.9,11.0,2.9,-13.0,84,76,59,30.76,30.28,11,2,23,0.00
2014-1-6,24.5,8.9,-7.1,10.0,-2.5,-14.0,78,61,42,30.74,30.36,19,5,22,0.00
2014-1-7,51.2,35.0,19.9,22.0,16.1,7.0,66,48,30,30.36,30.06,18,3,24,0.00
2014-1-8,31.9,25.9,17.4,24.0,19.6,15.0,91,77,65,30.32,30.11,10,2,17,0.00
2014-1-9,37.8,21.3,12.6,28.0,18.1,10.0,93,87,67,30.29,29.87,15,4,21,0.00
2014-1-10,40.0,31.9,24.8,36.0,27.8,20.0,95,85,63,29.86,29.66,17,4,22,0.00
2014-1-11,53.4,41.8,31.4,27.0,24.0,22.0,69,51,32,30.02,29.65,17,9,24,0.00
2014-1-12,52.5,44.3,32.4,31.0,24.6,16.0,65,47,30,29.86,29.50,18,7,25,0.00
2014-1-13,54.0,40.3,26.7,25.0,21.2,17.0,72,49,29,29.97,29.85,21,10,29,0.00
2014-1-14,46.8,35.2,24.0,33.0,23.8,16.0,87,65,38,30.38,29.91,20,5,25,0.00
2014-1-15,59.7,40.6,25.1,27.0,23.1,20.0,82,54,26,30.37,29.96,21,6,30,0.00
2014-1-16,46.8,37.6,22.4,25.0,15.0,2.0,69,43,17,30.30,29.98,25,9,41,0.00
2014-1-17,48.2,33.1,18.7,22.0,17.0,11.0,76,54,35,30.30,30.03,14,4,19,0.00
2014-1-18,51.0,41.5,30.6,26.0,18.4,10.0,52,40,26,30.18,29.97,21,8,33,0.00
2014-1-19,66.6,47.5,30.8,24.0,18.1,9.0,58,34,16,30.11,29.89,20,6,23,0.00
2014-1-20,51.1,37.9,20.2,23.0,16.3,13.0,75,44,24,30.48,29.90,20,5,32,0.00
2014-1-21,60.3,32.3,10.0,21.0,12.9,6.0,85,54,15,30.49,30.10,16,4,24,0.00
2014-1-22,40.5,28.3,11.4,24.0,16.4,-5.0,72,61,48,30.62,30.20,10,2,15,0.00
2014-1-23,21.6,11.3,0.1,5.0,-4.4,-12.0,77,51,27,30.94,30.63,18,5,20,0.00
2014-1-24,58.3,37.7,8.1,26.0,16.3,2.0,78,45,26,30.64,30.05,24,12,32,0.00
2014-1-25,59.0,48.6,42.8,32.0,26.6,21.0,51,43,34,30.09,29.79,19,8,23,0.00
2014-1-26,59.5,39.4,17.4,29.0,20.9,-3.0,67,49,30,30.31,29.71,17,8,24,0.00
2014-1-27,19.4,14.3,9.7,9.0,-0.7,-4.0,86,53,40,30.50,30.32,11,1,16,0.00
2014-1-28,28.1,16.6,4.6,10.0,3.2,-2.0,86,59,32,30.58,30.32,13,4,25,0.00
2014-1-29,55.4,35.0,13.8,18.0,10.0,4.0,66,41,14,30.31,29.52,23,9,32,0.00
2014-1-30,51.4,37.1,23.3,36.0,24.3,15.0,92,63,33,29.95,29.44,20,6,28,0.00
2014-1-31,23.1,19.0,17.5,21.0,16.7,15.0,92,90,88,30.13,29.93,14,2,18,0.00
2014-2-1,20.8,14.4,6.6,16.0,11.1,4.0,91,87,80,30.45,30.00,3,0,6,0.00
2014-2-2,27.6,13.3,0.1,22.0,9.6,-3.0,89,85,77,30.48,30.33,12,2,15,0.00
2014-2-3,24.4,18.6,11.9,21.0,13.5,6.0,88,80,71,30.33,30.14,10,2,13,0.00
2014-2-4,22.3,14.8,2.3,19.0,12.0,-1.0,90,88,86,30.62,30.20,13,4,17,0.00
2014-2-5,8.1,-0.7,-8.0,2.0,-5.0,-12.0,86,82,76,30.90,30.64,5,0,8,0.00
2014-2-6,7.3,1.1,-7.8,2.0,-3.2,-12.0,85,82,76,30.86,30.50,7,1,11,0.00
2014-2-7,15.2,8.7,3.5,11.0,5.2,0.0,89,85,81,30.50,30.15,9,2,13,0.00
2014-2-8,27.1,18.7,10.8,20.0,13.5,7.0,89,80,67,30.33,30.10,7,1,17,0.02
2014-2-9,18.5,14.2,10.6,16.0,11.0,8.0,89,87,83,30.54,30.30,7,1,11,0.00
2014-2-10,15.9,12.6,9.6,12.0,9.0,6.0,88,85,80,30.53,30.43,11,2,14,0.00
2014-2-11,35.6,23.5,9.3,30.0,19.9,7.0,90,86,80,30.48,30.11,17,7,22,0.05
2014-2-12,36.9,31.5,21.6,31.0,26.3,19.0,89,81,74,30.27,29.87,17,4,24,0.02
2014-2-13,47.0,40.9,30.3,37.0,32.9,25.0,84,73,64,29.97,29.72,16,7,24,0.00
2014-2-14,49.9,41.7,36.3,34.0,29.6,24.0,86,64,38,30.05,29.79,18,5,24,0.00
2014-2-15,55.2,43.0,35.5,39.0,30.9,27.0,80,63,42,30.12,29.74,12,3,21,0.00
2014-2-16,57.6,44.0,32.1,39.0,33.0,26.0,84,67,48,30.11,29.68,22,8,32,0.00
2014-2-17,61.3,47.7,33.9,35.0,23.1,15.0,82,44,16,30.08,29.77,27,9,43,0.00
2014-2-18,63.5,46.4,34.4,27.0,23.3,19.0,64,43,18,30.02,29.70,27,5,43,0.00
2014-2-19,57.3,43.4,33.7,30.0,23.9,20.0,68,49,26,30.01,29.48,24,5,28,0.00
2014-2-20,42.3,33.7,26.1,32.0,24.6,17.0,94,71,48,29.99,29.52,23,8,30,0.02
2014-2-21,51.0,38.1,25.4,27.0,20.4,15.0,68,51,32,29.96,29.88,19,7,23,0.00
2014-2-22,45.2,33.7,23.3,27.0,24.1,20.0,92,70,46,30.17,29.93,10,2,14,0.00
2014-2-23,27.6,22.2,19.4,26.0,20.0,17.0,93,91,87,30.40,30.18,13,4,15,0.00
2014-2-24,45.9,26.3,15.7,30.0,20.3,9.0,91,79,50,30.50,30.09,13,4,19,0.00
2014-2-25,15.2,12.0,5.6,11.0,7.3,3.0,88,81,74,30.70,30.39,9,1,13,0.00
2014-2-26,36.2,18.0,0.9,23.0,11.0,-2.0,87,75,46,30.67,30.19,14,3,17,0.02
2014-2-27,45.2,29.8,17.0,24.0,18.8,11.0,82,65,41,30.20,29.71,15,3,24,0.00
2014-2-28,39.5,28.8,20.0,30.0,23.0,15.0,91,79,65,30.17,29.67,8,1,17,0.00
2014-3-1,19.7,10.7,3.2,15.0,6.6,-2.0,88,83,79,30.59,30.16,15,5,19,0.00
2014-3-2,8.8,4.4,0.6,1.0,-2.2,-5.0,80,74,67,30.76,30.57,4,0,7,0.00
2014-3-26,68.7,55.8,46.8,44.0,38.7,-99.9,88,60,37,29.38,0.00,22,-20,28,0.00
2014-3-27,55.2,43.4,31.4,44.0,35.0,27.0,94,74,45,29.91,29.19,21,5,22,0.00
2014-3-28,61.0,43.2,28.3,40.0,29.0,24.0,94,64,26,30.25,29.91,17,4,24,0.02
2014-3-29,69.7,47.3,24.1,34.0,25.4,21.0,91,53,17,30.28,29.91,27,9,35,0.00
2014-3-30,73.0,56.8,39.1,35.0,30.0,22.0,63,38,15,29.90,29.37,14,3,16,0.00
2014-3-31,58.1,46.9,30.6,36.0,28.1,23.0,73,49,29,30.05,29.34,35,12,45,0.00
2014-4-1,51.1,37.1,25.3,28.0,23.5,18.0,81,60,39,30.11,29.91,19,4,22,0.00
2014-4-2,47.9,38.1,32.1,34.0,27.5,23.0,89,66,57,29.95,29.75,20,7,23,0.00
2014-4-3,38.8,35.2,30.3,35.0,32.6,27.0,95,90,81,30.13,29.79,6,1,15,0.29
2014-4-4,56.6,39.3,24.1,36.0,28.8,22.0,91,70,32,30.24,30.04,10,1,12,0.01
2014-4-5,63.4,49.1,37.4,41.0,31.5,27.0,75,53,29,30.07,29.80,22,9,31,0.00
2014-4-6,66.3,50.7,36.6,43.0,38.8,33.0,93,68,31,29.89,29.70,15,4,22,0.00
2014-4-7,58.8,45.4,34.8,44.0,35.4,30.0,94,71,35,30.14,29.82,21,3,32,0.03
2014-4-8,66.9,49.0,32.4,34.0,29.9,25.0,82,52,26,30.19,30.04,9,2,14,0.00
2014-4-9,85.1,64.1,44.6,36.0,30.5,22.0,63,34,10,30.04,29.61,25,10,36,0.00
2014-4-10,65.2,57.6,46.3,39.0,35.6,27.0,65,45,25,29.93,29.61,15,2,25,0.00
2014-4-11,76.4,60.4,40.9,43.0,36.6,31.0,70,44,26,29.99,29.65,16,6,24,0.00
2014-4-12,81.0,63.5,47.2,46.0,40.6,35.0,79,47,21,29.65,29.46,12,2,20,0.00
2014-4-13,59.3,38.5,29.1,38.0,32.1,26.0,95,81,41,30.18,29.50,15,3,23,0.50
2014-4-14,44.0,33.9,26.4,27.0,24.0,20.0,87,69,45,30.41,30.17,24,4,26,0.24
2014-4-15,66.7,46.3,28.7,33.0,26.4,21.0,82,51,20,30.27,29.67,22,9,30,0.00
2014-4-16,61.2,50.0,37.5,40.0,34.3,25.0,82,56,39,30.12,29.56,22,6,29,0.00
2014-4-17,56.0,40.6,30.9,39.0,32.6,27.0,88,75,50,30.33,30.13,15,2,19,0.00
2014-4-18,71.7,54.8,37.9,47.0,41.9,35.0,90,65,40,30.19,29.86,22,10,31,0.00
2014-4-19,71.1,60.0,50.2,52.0,48.7,43.0,85,68,50,29.94,29.78,15,4,23,0.04
2014-4-20,75.4,60.3,46.5,56.0,51.4,45.0,94,75,43,29.93,29.81,9,1,16,0.00
2014-4-21,73.3,60.4,48.7,54.0,36.9,26.0,94,49,18,30.14,29.88,8,2,15,0.00
2014-4-22,76.7,63.7,46.0,50.0,38.2,32.0,60,41,29,30.10,29.64,25,11,35,0.00
2014-4-23,81.1,67.0,55.9,52.0,44.5,33.0,68,46,29,29.64,29.32,27,10,36,0.01
2014-4-24,70.4,58.6,47.2,40.0,28.2,15.0,69,36,12,29.82,29.62,16,4,24,0.00
2014-4-25,77.3,61.8,47.4,37.0,28.8,22.0,49,30,16,29.81,29.59,14,4,22,0.00
2014-4-26,87.4,67.6,48.0,47.0,35.6,23.0,82,39,10,29.58,29.13,23,4,29,0.00
2014-4-27,67.1,57.7,40.8,43.0,32.8,24.0,88,43,22,29.31,28.98,24,5,33,0.01
2014-4-28,47.9,43.3,39.2,41.0,38.3,36.0,90,82,72,29.75,29.32,26,14,53,0.28
2014-4-29,45.8,40.2,36.3,38.0,34.2,32.0,91,80,63,30.19,29.75,24,9,32,0.04
2014-4-30,56.7,43.6,33.4,32.0,28.8,25.0,84,59,31,30.23,30.12,17,6,30,0.00
2014-5-1,62.3,49.9,36.6,33.0,28.6,25.0,78,47,26,30.18,30.02,12,4,22,0.00
2014-5-2,79.4,58.4,36.8,46.0,32.4,26.0,68,42,21,30.07,29.76,13,3,24,0.00
2014-5-3,80.7,61.8,43.7,49.0,44.3,39.0,85,57,27,29.86,29.70,13,3,16,0.00
2014-5-4,71.4,59.0,44.9,49.0,46.0,42.0,89,64,41,29.75,29.66,12,3,16,0.00
2014-5-5,73.2,59.8,44.5,49.0,46.0,41.0,88,63,38,29.81,29.65,14,3,19,0.00
2014-5-6,78.1,62.0,46.3,53.0,49.3,43.0,88,66,40,29.65,29.40,11,2,18,0.00
2014-5-7,81.1,64.8,49.7,58.0,53.2,47.0,92,69,37,29.51,29.35,11,2,19,0.00
2014-5-8,59.7,51.7,41.3,52.0,42.1,36.0,88,71,51,29.92,29.43,25,8,32,0.00
2014-5-9,74.4,55.0,32.6,43.0,35.7,30.0,92,56,23,29.96,29.69,18,2,29,0.00
2014-5-10,78.0,65.9,49.3,41.0,36.6,33.0,68,37,20,29.74,29.56,12,3,18,0.00
2014-5-11,59.4,52.2,44.4,48.0,44.0,35.0,93,75,41,29.84,29.50,16,6,26,0.00
2014-5-12,48.3,41.4,36.2,41.0,36.2,30.0,94,83,58,30.31,29.83,20,5,25,0.26
2014-5-13,62.9,47.7,32.3,38.0,31.1,26.0,86,58,27,30.42,30.29,12,3,21,0.00
2014-5-14,69.0,50.4,35.7,40.0,34.9,30.0,87,60,25,30.38,30.18,11,1,25,0.00
2014-5-15,66.4,50.7,35.8,37.0,30.5,22.0,90,53,21,30.26,30.11,12,1,21,0.00
2014-5-16,67.1,53.4,38.7,49.0,35.9,23.0,78,53,36,30.13,29.94,13,2,19,0.00
2014-5-17,54.6,46.1,36.3,48.0,41.7,34.0,95,84,73,30.13,30.06,13,1,13,0.02
2014-5-18,78.7,61.9,43.4,56.0,49.8,42.0,95,68,43,30.11,29.58,22,8,32,0.00
2014-5-19,90.6,74.2,56.7,58.0,54.7,48.0,79,54,25,29.58,29.46,11,4,21,0.00
2014-5-20,83.9,70.4,57.1,57.0,53.1,50.0,88,58,33,29.82,29.56,19,4,26,0.00
2014-5-21,81.9,69.5,53.1,58.0,49.9,46.0,88,52,34,30.04,29.74,23,7,28,0.20
2014-5-22,77.9,64.9,53.7,61.0,56.4,51.0,95,76,51,30.05,29.93,14,4,18,0.01
2014-5-23,68.8,63.1,58.4,64.0,60.4,57.0,96,91,81,30.04,29.92,15,3,21,0.17
2014-5-24,75.2,65.8,58.7,62.0,60.0,58.0,96,83,60,29.97,29.81,13,3,18,0.00
2014-5-25,76.4,66.7,59.6,63.0,59.2,55.0,97,79,50,29.85,29.75,11,2,15,0.00
2014-5-26,84.2,69.5,54.4,58.0,54.4,50.0,93,63,31,29.86,29.76,13,2,19,0.00
2014-5-27,88.1,72.9,55.6,59.0,53.2,49.0,87,55,27,29.86,29.80,12,1,19,0.00
2014-5-28,92.7,77.1,57.7,57.0,51.7,44.0,82,46,19,29.89,29.79,14,3,19,0.00
2014-5-29,91.3,77.1,56.9,58.0,52.9,46.0,86,47,22,29.83,29.72,13,3,21,0.00
2014-5-30,89.5,76.3,61.4,61.0,57.1,49.0,84,55,28,29.90,29.75,16,4,23,0.00
2014-5-31,85.3,72.2,62.2,66.0,62.6,60.0,95,74,45,29.90,29.69,16,2,18,0.28
2014-6-1,82.7,73.2,62.6,66.0,62.6,53.0,82,70,56,29.76,29.55,19,4,30,0.00
2014-6-2,83.1,69.5,54.8,60.0,55.6,52.0,90,65,37,29.92,29.77,10,1,15,0.00
2014-6-3,95.6,78.6,63.9,68.0,63.4,59.0,95,64,35,29.85,29.35,26,10,42,0.00
2014-6-4,74.8,65.8,60.9,61.0,59.9,59.0,95,82,59,29.78,29.56,12,1,15,0.00
2014-6-5,83.6,71.3,62.6,63.0,58.9,52.0,93,69,35,29.83,29.66,16,2,21,0.06
2014-6-6,85.4,70.5,57.2,65.0,58.0,52.0,93,68,34,29.83,29.62,21,4,38,0.58
2014-6-7,71.4,61.8,50.7,58.0,55.0,49.0,94,79,61,30.03,29.79,10,1,14,0.00
2014-6-8,65.7,60.0,54.3,60.0,56.1,53.0,95,87,79,30.03,29.71,16,3,29,0.78
2014-6-9,59.4,53.9,49.9,56.0,52.1,49.0,97,93,84,29.97,29.74,16,2,24,1.49
2014-6-10,77.2,62.2,49.8,59.0,54.2,49.0,97,78,49,29.97,29.72,11,1,15,0.06
2014-6-11,88.6,68.8,57.2,64.0,58.3,54.0,90,72,40,29.85,29.59,11,2,20,0.00
2014-6-12,73.5,62.7,50.3,56.0,49.7,47.0,91,65,39,30.07,29.85,8,0,14,0.00
2014-6-13,80.4,67.5,52.7,62.0,55.8,48.0,86,68,52,30.03,29.55,22,9,33,0.00
2014-6-14,87.5,75.0,59.2,66.0,61.8,53.0,87,65,44,29.55,29.34,19,7,52,0.25
2014-6-15,66.6,49.6,65.7,57.0,16.4,-99.9,71,51,65,29.71,29.70,9,-245,12,0.00
2014-6-16,94.6,77.0,64.9,70.0,61.1,35.0,93,64,12,29.70,29.40,22,7,27,0.00
2014-6-17,95.0,77.5,57.5,65.0,51.0,36.0,86,46,13,29.52,29.39,19,4,25,0.00
2014-6-18,88.6,77.3,64.9,63.0,56.3,47.0,80,49,32,29.64,29.42,23,6,40,0.15
2014-6-19,82.9,69.0,55.2,58.0,54.4,51.0,89,63,34,29.91,29.61,14,2,24,0.16
2014-6-20,94.3,76.5,62.2,68.0,60.3,57.0,83,61,30,29.92,29.64,24,4,33,0.01
2014-6-21,88.4,74.6,64.3,64.0,61.3,56.0,89,65,41,29.81,29.60,16,4,31,0.20
2014-6-22,84.7,73.2,61.1,67.0,61.3,52.0,90,68,41,29.85,29.60,21,3,34,0.03
2014-6-23,81.4,70.2,60.7,62.0,59.7,57.0,92,71,46,29.94,29.73,13,2,21,0.04
2014-6-24,80.2,70.8,62.7,63.0,59.8,56.0,89,70,49,29.95,29.85,16,2,26,0.01
2014-6-25,85.7,72.3,59.7,65.0,60.1,56.0,93,68,43,29.91,29.74,19,2,28,0.01
2014-6-26,84.7,73.0,60.5,71.0,63.4,57.0,92,73,53,29.88,29.51,16,4,27,0.49
2014-6-27,84.4,69.0,60.0,72.0,63.3,55.0,95,83,56,29.68,29.37,26,5,45,1.70
2014-6-28,84.7,70.8,57.7,62.0,56.9,49.0,94,67,29,29.71,29.55,22,6,28,0.04
2014-6-29,90.6,77.1,66.8,72.0,66.9,61.0,93,72,41,29.74,29.59,13,2,17,0.00
2014-6-30,86.6,77.6,66.4,74.0,64.3,54.0,96,68,39,29.76,29.49,20,3,23,0.00
2014-7-1,81.8,70.3,60.5,56.0,52.2,49.0,72,54,35,30.03,29.76,14,3,24,0.00
2014-7-2,79.7,68.0,57.9,56.0,53.3,51.0,87,62,40,30.14,30.01,9,1,10,0.00
2014-7-3,81.3,70.7,56.8,65.0,59.6,53.0,91,69,53,30.08,29.93,17,5,24,0.00
2014-7-4,91.4,76.0,64.1,69.0,63.6,59.0,86,67,45,29.98,29.79,21,6,27,0.34
2014-7-5,93.6,79.7,65.9,68.0,61.9,56.0,83,57,29,29.93,29.75,25,3,37,0.01
2014-7-6,101.7,84.5,69.6,73.0,63.2,51.0,72,52,19,29.77,29.66,15,1,21,0.00
2014-7-7,91.3,78.3,65.9,72.0,65.1,61.0,87,65,49,29.83,29.61,10,3,17,0.00
2014-7-8,84.0,74.7,64.3,63.0,57.0,50.0,89,57,33,30.00,29.84,6,1,13,0.00
2014-7-9,88.2,75.4,60.1,66.0,59.6,54.0,83,60,42,29.95,29.71,19,6,26,0.00
2014-7-10,90.1,77.0,64.1,70.0,64.9,62.0,94,69,41,29.80,29.66,21,8,27,0.02
2014-7-11,99.2,82.7,68.3,70.0,62.9,54.0,95,59,24,29.83,29.66,19,6,31,0.00
2014-7-12,88.6,77.8,69.0,71.0,68.6,65.0,93,74,54,29.94,29.77,7,1,20,0.00
2014-7-13,87.7,74.4,67.0,69.0,64.9,60.0,92,74,42,30.00,29.90,13,1,15,0.01
2014-7-14,82.0,70.3,59.3,64.0,57.7,48.0,95,67,39,30.14,29.90,14,2,16,0.00
2014-7-15,72.4,63.1,51.9,55.0,50.5,47.0,86,65,47,30.15,29.96,10,2,16,0.00
2014-7-16,65.7,60.5,56.8,58.0,55.0,51.0,94,83,67,30.01,29.92,12,2,18,0.27
2014-7-17,66.0,60.8,56.7,59.0,57.7,56.0,96,89,76,30.03,29.96,6,1,12,0.09
2014-7-18,81.0,66.9,56.6,64.0,59.8,55.0,96,80,54,29.98,29.78,14,5,22,0.00
2014-7-19,86.8,71.4,63.0,71.0,65.6,62.0,96,84,59,29.87,29.70,12,3,19,0.00
2014-7-20,102.4,85.6,64.5,68.0,58.7,47.0,96,49,15,29.70,29.57,12,5,17,0.00
2014-7-21,97.9,84.0,73.6,68.0,61.8,57.0,63,49,28,29.77,29.62,15,5,26,0.01
2014-7-22,93.5,81.1,67.4,71.0,65.7,61.0,83,61,40,30.00,29.77,26,6,28,0.00
2014-7-23,90.3,75.9,65.8,68.0,64.6,52.0,91,71,34,30.18,29.93,17,6,28,0.01
2014-7-24,103.4,84.0,66.6,69.0,60.0,48.0,91,53,16,29.97,29.60,20,7,35,0.00
2014-7-25,93.3,83.1,69.4,70.0,63.2,56.0,73,52,42,29.66,29.58,11,2,16,0.00
2014-7-26,96.8,82.0,69.7,69.0,64.2,58.0,82,58,30,29.87,29.64,9,1,18,0.00
2014-7-27,88.2,75.1,62.3,64.0,55.9,48.0,90,56,26,30.09,29.86,13,2,17,0.00
2014-7-28,88.0,74.2,60.1,60.0,56.8,53.0,82,57,37,30.16,30.00,18,3,19,0.00
2014-7-29,87.0,73.3,58.7,63.0,59.3,55.0,88,64,42,30.05,29.89,14,5,23,0.00
2014-7-30,78.7,69.0,62.3,63.0,59.5,54.0,94,74,44,30.06,29.97,17,2,23,0.18
2014-7-31,88.0,72.9,58.6,62.0,55.0,49.0,90,59,27,30.07,29.89,10,1,26,0.01
2014-8-1,90.5,76.9,61.2,60.0,52.6,42.0,77,47,19,29.98,29.91,8,1,14,0.00
2014-8-2,90.5,76.6,62.6,59.0,54.6,50.0,74,49,27,30.02,29.89,13,1,21,0.00
2014-8-3,94.9,80.4,64.3,59.0,53.4,48.0,76,43,21,29.96,29.82,10,1,16,0.00
2014-8-4,95.8,81.8,68.7,59.0,53.4,49.0,63,40,20,29.87,29.77,18,6,22,0.00
2014-8-5,93.1,80.9,70.9,62.0,58.3,53.0,62,47,32,29.81,29.71,18,6,24,0.00
2014-8-6,91.5,79.6,69.7,68.0,62.9,60.0,81,58,40,29.78,29.69,11,2,15,0.00
2014-8-7,85.1,71.2,61.5,69.0,64.5,60.0,94,81,55,29.86,29.74,26,2,41,0.79
2014-8-8,86.8,73.5,61.3,68.0,63.9,60.0,96,75,44,29.87,29.76,8,1,16,0.01
2014-8-9,87.8,74.3,64.5,70.0,64.7,57.0,90,73,54,29.92,29.72,15,3,27,0.00
2014-8-10,85.8,72.2,60.2,66.0,61.9,58.0,93,72,44,30.07,29.86,14,2,16,0.00
2014-8-11,85.1,71.7,59.4,65.0,60.3,56.0,95,70,44,30.12,30.01,11,1,20,0.00
2014-8-12,87.5,74.3,60.5,61.0,58.3,55.0,85,59,40,30.09,29.90,10,2,16,0.00
2014-8-13,93.1,77.0,60.3,64.0,61.1,57.0,90,61,34,29.97,29.81,11,2,22,0.00
2014-8-14,94.0,81.1,64.6,65.0,62.3,58.0,88,56,32,29.85,29.63,16,5,23,0.00
2014-8-15,94.3,80.6,67.8,67.0,63.4,61.0,88,59,35,29.71,29.64,15,3,22,0.00
2014-8-16,95.9,80.2,64.6,67.0,61.9,57.0,87,58,27,29.80,29.70,11,1,26,0.00
2014-8-17,97.6,78.6,64.0,67.0,61.6,54.0,88,60,25,29.81,29.64,16,3,35,0.40
2014-8-18,92.4,75.9,60.7,66.0,60.7,57.0,89,63,34,29.81,29.65,11,2,22,0.02
2014-8-19,93.0,76.9,59.6,67.0,60.5,56.0,88,59,30,29.73,29.53,13,2,19,0.00
2014-8-20,93.9,80.2,71.3,66.0,63.7,61.0,75,59,37,29.62,29.51,13,2,23,0.00
2014-8-21,95.8,80.2,66.1,66.0,59.4,52.0,88,54,23,29.74,29.58,10,2,15,0.00
2014-8-22,89.6,75.9,64.3,70.0,64.6,59.0,95,72,38,29.81,29.67,18,3,25,1.26
2014-8-23,86.9,72.9,64.5,68.0,65.3,60.0,96,79,48,29.74,29.58,11,1,28,0.09
2014-8-24,85.1,72.3,59.9,60.0,54.9,49.0,90,59,30,29.81,29.66,6,1,12,0.00
2014-8-25,79.9,70.3,61.4,66.0,61.5,55.0,92,74,60,30.00,29.76,12,3,21,0.78
2014-8-26,83.2,69.5,60.3,68.0,62.7,58.0,93,80,52,30.08,29.92,13,3,22,0.38
2014-8-27,79.9,70.2,65.9,69.0,66.1,64.0,95,87,66,29.99,29.82,18,3,23,0.30
2014-8-28,82.7,69.5,60.8,67.0,61.9,59.0,95,79,48,29.91,29.73,9,2,27,0.35
2014-8-29,86.6,70.0,0.3,60.0,56.9,52.0,93,66,34,29.86,29.74,7,1,14,0.00
2014-8-30,90.4,73.8,59.9,62.0,58.4,52.0,93,63,27,29.86,29.64,14,2,19,0.00
2014-8-31,81.6,72.5,63.3,63.0,59.2,56.0,84,64,44,29.69,29.55,21,4,26,0.01
2014-9-1,79.7,66.4,54.5,58.0,53.9,50.0,91,68,36,29.88,29.67,6,0,10,0.00
2014-9-2,86.7,70.1,55.8,65.0,58.3,53.0,92,70,36,29.95,29.75,13,3,23,0.00
2014-9-3,97.3,79.0,66.1,71.0,65.2,58.0,96,68,28,29.75,29.47,13,3,22,0.03
2014-9-4,82.6,74.6,58.9,61.0,56.1,49.0,81,54,43,30.01,29.45,17,6,24,0.18
2014-9-5,62.7,57.6,54.3,54.0,52.4,51.0,91,83,71,30.25,29.95,7,0,15,0.09
2014-9-6,74.6,62.2,51.7,57.0,52.5,50.0,93,73,47,30.28,30.12,8,1,13,0.00
2014-9-7,81.1,67.0,53.6,60.0,54.7,50.0,86,66,46,30.14,29.82,18,4,22,0.00
2014-9-8,92.2,75.7,59.3,61.0,56.6,52.0,93,57,26,29.82,29.65,14,2,17,0.00
2014-9-9,83.6,73.3,65.7,70.0,65.1,57.0,93,77,55,29.66,29.47,14,3,20,0.22
2014-9-10,66.3,56.0,51.3,64.0,52.1,49.0,94,87,75,30.06,29.59,14,4,20,0.01
2014-9-11,52.1,47.0,42.7,50.0,45.8,42.0,96,95,91,30.42,30.08,9,2,18,0.01
2014-9-12,49.5,41.4,36.3,41.0,37.3,35.0,96,86,65,30.56,30.41,10,2,16,0.07
2014-9-13,61.8,46.8,35.3,50.0,41.0,33.0,92,81,63,30.45,30.14,17,5,22,0.02
2014-9-14,76.4,58.4,42.1,61.0,51.9,41.0,95,80,59,30.17,29.86,13,2,21,0.02
2014-9-15,67.4,57.8,50.8,57.0,49.8,45.0,95,77,49,30.21,29.90,12,2,15,0.02
2014-9-16,83.9,64.1,49.7,61.0,54.3,44.0,89,73,44,30.19,29.83,14,4,20,0.01
2014-9-17,88.0,68.7,51.4,64.0,59.2,50.0,97,76,41,29.85,29.71,12,2,16,0.00
2014-9-18,73.9,66.0,62.7,66.0,63.4,61.0,97,91,75,29.82,29.73,11,3,15,0.00
2014-9-19,89.3,75.4,62.5,65.0,61.5,58.0,95,65,37,29.77,29.64,22,8,27,0.01
2014-9-20,85.1,73.6,61.8,63.0,57.1,52.0,91,60,34,30.04,29.70,13,3,19,0.00
2014-9-21,76.0,63.5,50.5,52.0,45.9,41.0,85,56,31,30.23,30.05,8,1,13,0.00
2014-9-22,77.8,65.4,53.4,57.0,47.2,42.0,91,54,36,30.20,29.95,19,5,27,0.26
2014-9-23,83.5,67.8,55.9,65.0,58.4,54.0,95,75,43,29.98,29.81,20,3,26,0.10
2014-9-24,85.4,70.0,55.4,61.0,57.8,53.0,92,69,36,30.00,29.88,6,1,8,0.00
2014-9-25,85.7,72.0,58.6,64.0,59.3,55.0,93,68,36,30.02,29.91,9,1,16,0.00
2014-9-26,84.2,70.8,57.8,62.0,55.7,52.0,89,62,34,29.93,29.82,11,3,19,0.00
2014-9-27,82.9,69.6,57.8,58.0,54.1,51.0,80,60,39,29.86,29.76,17,5,23,0.00
2014-9-28,82.7,69.7,58.2,61.0,56.5,55.0,90,66,40,29.91,29.83,24,5,25,0.00
2014-9-29,81.2,70.6,59.8,58.0,55.9,54.0,83,62,42,29.90,29.63,17,6,29,0.00
2014-9-30,76.2,68.8,53.0,53.0,47.7,43.0,89,49,32,29.68,29.60,9,1,14,0.00
2014-10-1,76.5,63.3,51.1,54.0,48.6,44.0,88,63,33,29.78,29.62,14,1,33,0.00
2014-10-2,67.6,56.8,48.6,51.0,44.6,37.0,93,68,33,29.94,29.77,14,4,21,0.00
2014-10-3,57.5,47.2,37.7,43.0,31.4,24.0,89,58,29,30.32,29.94,24,8,32,0.00
2014-10-4,74.2,53.8,37.8,39.0,33.4,28.0,77,50,21,30.22,29.86,13,3,24,0.00
2014-10-5,72.4,58.5,45.6,52.0,42.4,37.0,81,57,32,29.88,29.78,16,4,23,0.00
2014-10-6,78.6,63.5,50.1,48.0,44.4,40.0,83,54,26,29.85,29.65,19,6,24,0.00
2014-10-7,77.8,64.7,48.4,52.0,46.7,41.0,84,54,36,29.93,29.72,7,0,10,0.00
2014-10-8,71.8,58.3,47.3,49.0,44.0,39.0,81,61,40,30.02,29.86,8,2,14,0.00
2014-10-9,64.3,55.8,45.2,53.0,48.9,43.0,92,78,65,30.09,29.88,12,2,17,0.00
2014-10-10,55.6,48.2,41.0,49.0,40.7,38.0,89,76,58,30.25,30.08,10,1,15,0.06
2014-10-11,63.3,49.7,37.7,49.0,43.4,36.0,95,81,57,30.20,29.87,14,3,23,0.00
2014-10-12,63.7,51.7,44.3,54.0,45.8,41.0,94,81,59,29.87,29.56,15,4,23,0.08
2014-10-13,64.1,52.2,44.2,42.0,36.6,32.0,84,59,30,30.05,29.86,22,7,28,0.00
2014-10-14,69.6,53.5,38.2,38.0,34.1,32.0,78,52,27,30.12,30.02,8,0,15,0.00
2014-10-15,80.6,60.4,42.6,45.0,38.6,34.0,79,49,21,30.04,29.68,11,3,21,0.00
2014-10-16,76.7,60.4,46.7,44.0,38.8,30.0,79,49,24,29.93,29.63,12,2,17,0.00
2014-10-17,68.4,53.3,41.1,43.0,37.6,31.0,80,57,35,30.17,29.94,8,1,12,0.00
2014-10-18,66.1,51.4,39.1,44.0,39.8,35.0,86,66,42,30.23,30.05,15,3,19,0.00
2014-10-19,73.4,56.6,42.8,51.0,45.9,39.0,88,69,44,30.06,29.92,7,1,11,0.00
2014-10-20,76.5,59.2,43.6,51.0,44.3,41.0,91,62,31,30.09,29.97,9,1,12,0.00
2014-10-21,78.4,62.7,47.0,59.0,49.8,40.0,84,64,43,30.00,29.79,22,5,22,0.00
2014-10-22,71.8,61.4,54.8,53.0,51.3,49.0,84,71,49,29.97,29.81,13,3,16,0.00
2014-10-23,74.8,58.1,43.1,57.0,49.0,41.0,94,75,33,30.07,29.93,11,2,16,0.00
2014-10-24,87.2,67.6,51.9,55.0,43.8,35.0,91,51,16,29.96,29.89,15,2,20,0.00
2014-10-25,82.3,63.8,44.6,52.0,42.1,35.0,82,48,26,30.00,29.78,10,2,11,0.00
2014-10-26,86.6,64.0,40.5,53.0,44.4,36.0,96,58,19,29.78,29.52,9,2,14,0.00
2014-10-27,64.8,54.4,45.6,43.0,36.4,30.0,79,53,32,30.02,29.51,16,5,24,0.00
2014-10-28,60.1,47.1,33.9,31.0,27.4,25.0,74,49,27,30.21,30.03,14,2,17,0.00
2014-10-29,72.7,52.8,35.2,36.0,28.4,24.0,67,43,17,30.22,29.95,11,1,17,0.00
2014-10-30,67.8,51.9,38.4,36.0,31.0,27.0,71,47,28,30.40,30.02,15,2,18,0.00
2014-10-31,47.3,37.0,30.2,32.0,25.6,16.0,91,67,36,30.55,30.32,15,4,18,0.00
2014-11-1,59.9,43.8,30.9,36.0,27.0,18.0,64,53,40,30.32,29.87,19,10,26,0.00
2014-11-2,73.9,58.3,43.2,51.0,43.9,33.0,85,61,40,29.87,29.66,22,7,32,0.00
2014-11-3,61.4,49.3,35.0,52.0,41.8,32.0,90,76,57,30.16,29.63,20,6,25,0.00
2014-11-4,61.3,43.8,32.0,34.0,28.8,24.0,90,61,28,30.31,30.13,12,3,16,0.00
2014-11-5,68.6,50.9,35.2,35.0,31.0,27.0,73,49,27,30.35,30.10,15,5,21,0.00
2014-11-6,61.8,47.0,32.5,34.0,31.1,27.0,84,57,33,30.45,30.10,13,2,17,0.00
2014-11-7,77.1,55.2,39.0,40.0,34.1,30.0,72,49,20,30.16,29.82,24,4,26,0.00
2014-11-8,63.4,48.8,36.4,41.0,35.8,33.0,90,64,35,30.27,29.93,17,4,22,0.00
2014-11-9,70.7,56.0,43.9,35.0,31.3,29.0,63,42,22,29.92,29.40,15,3,20,0.00
2014-11-10,55.2,38.8,17.8,34.0,23.6,11.0,86,57,37,30.22,29.27,16,6,32,0.00
2014-11-11,25.8,16.8,9.3,10.0,6.6,4.0,81,66,46,30.70,30.23,11,3,16,0.00
2014-11-12,20.6,12.1,5.0,4.0,-0.4,-4.0,74,58,37,30.84,30.70,14,5,20,0.00
2014-11-13,23.9,11.9,-0.4,4.0,-0.6,-5.0,81,60,36,30.86,30.55,7,1,11,0.00
2014-11-14,32.0,23.4,17.3,14.0,9.9,5.0,68,57,48,30.55,30.15,18,6,21,0.00
2014-11-15,30.7,21.6,13.0,24.0,14.3,4.0,90,73,64,30.46,30.05,11,3,19,0.00
2014-11-16,39.0,20.8,8.2,14.0,5.4,-1.0,81,55,20,30.44,30.22,17,6,25,0.00
2014-11-17,29.7,17.6,8.6,13.0,7.6,4.0,85,67,43,30.46,30.39,14,2,19,0.00
2014-11-18,56.5,34.6,11.4,19.0,11.0,2.0,73,43,17,30.43,30.06,20,6,24,0.00
2014-11-19,47.1,37.9,25.1,26.0,21.2,17.0,74,52,39,30.21,30.08,13,2,16,0.00
2014-11-20,46.0,29.5,13.4,25.0,19.4,10.0,88,68,43,30.19,30.10,3,0,8,0.00
2014-11-21,55.3,39.3,28.5,35.0,29.2,24.0,85,69,45,30.18,29.97,15,2,17,0.00
2014-11-22,70.3,56.3,36.6,37.0,24.5,19.0,66,32,15,29.84,29.46,13,5,24,0.00
2014-11-23,52.9,43.3,30.4,35.0,23.7,13.0,71,48,24,29.80,29.43,18,6,28,0.00
2014-11-24,47.2,36.6,27.8,31.0,22.7,15.0,83,59,36,30.25,29.77,20,9,28,0.00
2014-11-25,50.4,37.4,22.8,33.0,22.7,13.0,84,59,23,30.26,29.91,20,6,28,0.00
2014-11-26,42.0,35.8,32.5,33.0,25.6,21.0,83,67,55,30.45,30.08,16,4,27,0.00
2014-11-27,62.4,39.7,23.4,33.0,26.4,19.0,88,63,33,30.45,30.03,13,3,21,0.00
2014-11-28,77.9,56.3,40.0,29.0,23.0,14.0,58,33,10,30.03,29.61,10,2,17,0.00
2014-11-29,70.8,51.9,35.9,27.0,20.3,15.0,52,31,13,29.59,29.48,4,0,7,0.00
2014-11-30,38.5,21.2,15.8,21.0,8.5,2.0,84,60,41,30.69,29.60,13,2,17,0.00
2014-12-1,28.9,19.7,13.7,4.0,1.3,-1.0,60,46,31,30.79,30.38,15,4,21,0.00
2014-12-2,69.1,38.2,19.4,26.0,13.7,0.0,62,40,17,30.37,29.99,20,5,23,0.00
2014-12-3,39.5,29.6,22.4,17.0,13.3,10.0,68,52,33,30.39,30.19,14,2,18,0.00
2014-12-4,56.5,38.2,22.7,32.0,23.7,12.0,78,58,35,30.21,29.99,10,2,13,0.00
2014-12-5,58.5,43.8,33.8,35.0,30.0,26.0,77,60,39,30.42,29.99,11,1,15,0.00
2014-12-6,45.5,36.6,26.7,29.0,25.5,21.0,83,65,48,30.57,30.38,10,2,13,0.00
2014-12-7,62.9,41.3,27.9,37.0,30.1,26.0,95,69,33,30.37,30.18,11,2,14,0.00
2014-12-8,58.1,41.2,30.0,31.0,27.0,24.0,81,60,32,30.40,30.26,9,1,14,0.00
2014-12-9,42.6,30.1,20.9,28.0,23.4,17.0,93,77,56,30.44,30.26,8,1,15,0.00
2014-12-10,56.3,35.1,22.3,30.0,25.8,19.0,94,73,34,30.27,30.13,6,1,9,0.00
2014-12-11,52.1,35.4,27.9,38.0,31.7,27.0,95,88,55,30.21,30.11,9,2,15,0.00
2014-12-12,49.3,45.2,38.2,46.0,43.5,37.0,96,93,87,30.21,30.07,16,7,23,0.00
2014-12-13,58.1,51.1,48.2,50.0,47.5,45.0,95,87,72,30.07,29.67,18,4,19,0.00
2014-12-14,52.7,43.3,33.0,51.0,41.2,32.0,96,92,82,29.76,29.57,21,4,27,0.94
2014-12-15,34.0,30.5,24.9,32.0,27.1,22.0,96,87,77,30.33,29.77,20,8,29,0.00
2014-12-16,29.6,23.2,17.8,24.0,20.4,15.0,93,89,78,30.46,30.32,11,2,14,0.00
2014-12-17,25.1,23.1,21.0,24.0,21.7,20.0,95,94,93,30.36,30.22,3,0,7,0.00
2014-12-18,30.1,26.1,21.8,29.0,24.9,20.0,95,95,94,30.29,30.23,0,0,0,0.00
2014-12-19,49.3,32.1,19.2,39.0,26.3,18.0,96,81,41,30.29,30.13,10,2,16,0.07
2014-12-20,49.3,37.4,27.0,37.0,30.3,24.0,91,77,52,30.14,29.99,1,0,10,0.00
2014-12-21,46.8,37.5,29.4,36.0,32.4,27.0,90,82,64,29.99,29.55,13,3,17,0.00
2014-12-22,49.0,40.6,33.1,35.0,30.0,25.0,84,67,44,29.73,29.57,22,10,28,0.00
2014-12-23,32.9,29.7,24.9,30.0,26.3,20.0,93,87,79,30.21,29.72,17,8,26,0.00
2014-12-24,43.2,30.5,18.6,28.0,21.4,15.0,87,70,47,30.19,29.64,18,7,20,0.00
2014-12-25,41.8,33.4,25.8,28.0,24.9,21.0,90,72,56,29.90,29.48,10,1,16,0.00
2014-12-26,29.7,24.7,14.1,27.0,22.1,12.0,92,90,86,30.32,29.92,8,1,15,0.00
2014-12-27,27.5,16.6,7.4,20.0,12.0,5.0,91,82,69,30.47,30.32,11,2,17,0.00
2014-12-28,31.2,18.5,5.9,25.0,13.6,2.0,91,81,68,30.37,30.16,4,0,8,0.01
2014-12-29,20.9,13.1,5.6,19.0,10.7,3.0,92,89,87,30.84,30.26,9,2,16,0.00
2014-12-30,7.4,3.3,-0.5,4.0,0.1,-4.0,87,86,85,31.04,30.84,6,1,10,0.00
2014-12-31,12.7,2.0,-9.2,5.0,-3.0,-14.0,85,79,71,30.92,30.54,13,2,14,0.00
2015-1-1,25.6,14.8,5.7,18.0,8.8,1.0,82,77,67,30.54,30.28,8,2,11,0.00
2015-1-2,30.9,18.6,8.0,21.0,13.2,5.0,87,80,64,30.32,30.05,7,1,12,0.02